Latest Weather Observations for Perth Airport

IDW60901

Issued at 6:15 pm WST Wednesday 23 April 2014 (issued every 10 minutes, with the page automatically refreshed every 10 minutes)

About weather observations | Map of Perth area stations | Latest observations for Perth area | Other Formats
Station Details ID: 009021 Name: PERTH AIRPORT Lat: -31.93 Lon: 115.98 Height: 15.4 m
Data from the previous 72 hours. | See also: Recent months at Perth Airport
Date/Time
WST
Tmp

°C
App
Tmp
°C
Dew
Point
°C
Rel
Hum
%
Delta-T

°C
Wind Press
QNH
hPa
Press
MSL
hPa
Rain
since
9 am
mm
Dir
 
Spd
km/h
Gust
km/h
Spd
kts
Gust
kts
23/06:00pm 21.6 19.8 12.0 54 5.4 W 13 15 7 8 1013.6 1013.6 0.0
23/05:30pm 22.9 21.5 12.3 51 6.0 W 11 15 6 8 1013.3 - 0.0
23/05:00pm 25.5 24.1 8.7 34 9.1 WSW 6 13 3 7 1013.2 - 0.0
23/04:30pm 26.2 23.9 7.6 30 9.9 NE 9 15 5 8 1013.3 - 0.0
23/04:00pm 26.2 22.5 6.5 28 10.3 S 15 22 8 12 1013.3 - 0.0
23/03:30pm 26.1 22.8 6.3 28 10.3 S 13 17 7 9 1013.2 - 0.0
23/03:00pm 26.2 22.5 6.2 28 10.4 SSW 15 20 8 11 1013.4 1013.4 0.0
23/02:30pm 26.2 22.4 5.9 27 10.5 SSW 15 20 8 11 1013.6 - 0.0
23/02:00pm 25.8 23.5 5.8 27 10.3 S 7 22 4 12 1013.8 - 0.0
23/01:30pm 24.7 21.6 5.7 29 9.7 S 11 24 6 13 1014.1 - 0.0
23/01:00pm 24.8 21.4 5.8 29 9.7 SSW 13 20 7 11 1014.7 - 0.0
23/12:30pm 24.0 20.0 4.8 29 9.6 SE 15 20 8 11 1015.4 - 0.0
23/12:00pm 24.2 20.1 4.2 27 9.9 S 15 20 8 11 1015.9 1015.9 0.0
23/11:30am 23.6 20.7 6.5 33 8.8 SSE 11 19 6 10 1016.2 - 0.0
23/11:00am 22.4 18.4 6.8 36 8.0 SSE 17 24 9 13 1016.8 - 0.0
23/10:30am 22.0 17.4 6.7 37 7.8 S 20 28 11 15 1017.1 - 0.0
23/10:00am 20.7 16.7 6.6 40 7.1 SSE 17 22 9 12 1017.5 - 0.0
23/09:30am 19.2 15.3 7.1 45 6.1 SSE 17 24 9 13 1018.2 - 0.0
23/09:00am 18.7 14.4 6.9 46 5.9 S 19 22 10 12 1018.6 1018.6 0.0
23/08:30am 16.4 13.5 8.1 58 4.2 SE 13 15 7 8 1018.5 - 0.0
23/08:00am 13.5 11.0 8.0 69 2.7 SE 11 13 6 7 1018.1 - 0.0
23/07:30am 8.1 5.1 6.1 87 0.9 S 11 15 6 8 1017.9 - 0.0
23/07:00am 6.6 2.8 5.7 94 0.4 SSE 15 19 8 10 1017.7 - 0.0
23/06:30am 6.5 3.5 5.8 95 0.3 S 11 15 6 8 1017.7 - 0.0
23/06:00am 6.3 3.2 5.6 95 0.3 S 11 15 6 8 1017.7 1017.7 0.0
23/05:30am 6.7 5.4 5.8 94 0.4 E 2 7 1 4 1017.8 - 0.0
23/05:00am 6.9 6.0 6.0 94 0.4 CALM 0 6 0 3 1017.7 - 0.0
23/04:30am 7.2 6.3 6.1 93 0.5 CALM 0 0 0 0 1017.5 - 0.0
23/04:00am 8.5 6.1 7.2 91 0.6 S 9 11 5 6 1017.5 - 0.0
23/03:30am 8.2 5.8 7.1 93 0.5 SSE 9 11 5 6 1017.6 - 0.0
23/03:00am 8.9 6.5 7.2 89 0.8 S 9 9 5 5 1017.8 1017.8 0.0
23/02:30am 8.7 6.4 7.4 91 0.6 S 9 9 5 5 1018.0 - 0.0
23/02:00am 9.0 6.7 7.3 89 0.8 S 9 9 5 5 1017.8 - 0.0
23/01:30am 9.4 7.1 7.3 87 1.0 S 9 9 5 5 1017.8 - 0.0
23/01:00am 10.5 8.2 7.6 82 1.4 S 9 13 5 7 1017.6 - 0.0
23/12:30am 12.3 9.4 8.2 76 2.0 SSW 13 15 7 8 1017.6 - 0.0
23/12:00am 14.1 10.9 8.3 68 2.9 SSW 15 19 8 10 1017.6 1017.6 0.0
 
Date/Time
WST
Tmp

°C
App
Tmp
°C
Dew
Point
°C
Rel
Hum
%
Delta-T

°C
Wind Press
QNH
hPa
Press
MSL
hPa
Rain
since
9 am
mm
Dir
 
Spd
km/h
Gust
km/h
Spd
kts
Gust
kts
22/11:30pm 13.5 10.1 7.8 68 2.8 S 15 20 8 11 1018.1 - 0.0
22/11:00pm 13.5 10.6 8.0 69 2.7 S 13 15 7 8 1018.4 - 0.0
22/10:30pm 14.7 11.7 7.9 63 3.4 S 13 17 7 9 1018.6 - 0.0
22/10:00pm 15.0 11.6 7.8 62 3.6 SSW 15 17 8 9 1018.7 - 0.0
22/09:30pm 15.6 12.2 7.5 58 4.0 SSW 15 19 8 10 1018.7 - 0.0
22/09:00pm 16.1 12.3 7.5 56 4.3 SSW 17 19 9 10 1018.7 1018.7 0.0
22/08:30pm 16.5 12.2 7.2 54 4.6 S 19 24 10 13 1018.4 - 0.0
22/08:00pm 17.2 12.4 7.4 52 4.9 S 22 28 12 15 1018.8 - 0.0
22/07:30pm 17.6 13.3 6.9 49 5.3 SSW 19 26 10 14 1018.7 - 0.0
22/07:00pm 18.2 13.6 6.7 47 5.7 SSW 20 30 11 16 1018.0 - 0.0
22/06:30pm 18.8 14.2 6.3 44 6.2 SSW 20 28 11 15 1017.3 - 0.0
22/06:00pm 19.6 15.3 5.3 39 7.0 SSW 17 22 9 12 1017.2 1017.2 0.0
22/05:30pm 20.3 15.8 6.3 40 7.0 SW 19 24 10 13 1017.1 - 0.0
22/05:00pm 21.3 16.2 5.9 36 7.7 SW 22 32 12 17 1017.2 - 0.0
22/04:30pm 22.0 16.8 5.6 34 8.2 SW 22 30 12 16 1017.3 - 0.0
22/04:00pm 22.3 17.0 5.2 33 8.5 SW 22 30 12 16 1017.3 - 0.0
22/03:30pm 22.5 17.3 5.5 33 8.5 SW 22 32 12 17 1017.3 - 0.0
22/03:00pm 23.0 17.5 6.0 33 8.6 SW 24 32 13 17 1017.5 1017.5 0.0
22/02:30pm 23.1 18.0 6.2 33 8.6 SW 22 32 12 17 1017.6 - 0.0
22/02:00pm 22.9 18.0 6.7 35 8.3 SW 22 30 12 16 1017.6 - 0.0
22/01:30pm 23.5 18.8 6.0 32 8.9 WSW 20 28 11 15 1017.9 - 0.0
22/01:00pm 23.6 18.6 3.4 26 9.8 SW 19 28 10 15 1018.2 - 0.0
22/12:30pm 23.4 20.2 3.0 26 9.8 SSE 9 15 5 8 1018.8 - 0.0
22/12:00pm 23.2 19.7 3.6 28 9.5 SW 11 19 6 10 1019.2 1019.2 0.0
22/11:30am 22.7 19.9 3.4 28 9.3 WSW 7 13 4 7 1019.6 - 0.0
22/11:00am 21.7 19.5 5.4 34 8.1 NNW 6 9 3 5 1020.2 - 0.0
22/10:30am 20.6 18.3 5.6 37 7.4 E 7 11 4 6 1020.5 - 0.0
22/10:00am 19.6 16.9 5.8 40 6.8 ENE 9 15 5 8 1020.9 - 0.0
22/09:30am 18.1 15.0 5.5 43 6.1 ENE 11 15 6 8 1021.2 - 0.0
22/09:00am 16.4 12.5 5.3 47 5.3 ENE 15 19 8 10 1021.2 1021.2 0.0
22/08:30am 14.9 10.2 5.1 52 4.6 ENE 19 24 10 13 1021.0 - 0.0
22/08:00am 13.6 9.2 4.7 55 4.1 NE 17 22 9 12 1021.0 - 0.0
22/07:30am 12.5 8.1 4.9 60 3.5 ENE 17 19 9 10 1020.7 - 0.0
22/07:00am 11.1 7.1 4.7 64 2.9 NE 15 19 8 10 1020.5 - 0.0
22/06:30am 11.0 7.4 4.8 65 2.8 NNE 13 15 7 8 1020.3 - 0.0
22/06:00am 11.5 7.9 4.9 64 3.0 NE 13 15 7 8 1020.1 1020.1 0.0
22/05:30am 10.4 8.0 5.3 70 2.3 N 7 9 4 5 1020.1 - 0.0
22/05:00am 5.9 3.4 4.7 92 0.5 N 7 9 4 5 1019.9 - 0.0
22/04:30am 5.8 2.9 4.9 94 0.4 ESE 9 11 5 6 1019.9 - 0.0
22/04:00am 6.0 3.6 5.1 94 0.4 ESE 7 9 4 5 1019.8 - 0.0
22/03:30am 6.2 4.0 5.1 93 0.5 ESE 6 7 3 4 1019.7 - 0.0
22/03:00am 6.9 4.7 5.3 89 0.7 ESE 6 7 3 4 1019.8 1019.8 0.0
22/02:30am 6.8 4.4 5.4 91 0.6 ESE 7 7 4 4 1019.8 - 0.0
22/02:00am 6.9 4.8 5.8 93 0.5 ESE 6 9 3 5 1019.8 - 0.0
22/01:30am 7.6 6.4 6.3 91 0.6 ESE 2 7 1 4 1019.9 - 0.0
22/01:00am 8.3 6.8 6.6 89 0.8 ESE 4 7 2 4 1019.8 - 0.0
22/12:30am 8.6 7.2 7.1 90 0.7 ESE 4 7 2 4 1020.0 - 0.0
22/12:00am 9.2 8.2 7.5 89 0.8 ESE 2 7 1 4 1020.1 1020.1 0.0
 
Date/Time
WST
Tmp

°C
App
Tmp
°C
Dew
Point
°C
Rel
Hum
%
Delta-T

°C
Wind Press
QNH
hPa
Press
MSL
hPa
Rain
since
9 am
mm
Dir
 
Spd
km/h
Gust
km/h
Spd
kts
Gust
kts
21/11:30pm 10.0 8.1 7.5 84 1.2 S 7 9 4 5 1020.3 - 0.0
21/11:00pm 12.1 9.7 8.5 78 1.8 SSE 11 13 6 7 1020.5 - 0.0
21/10:30pm 14.1 11.8 9.0 71 2.6 S 11 13 6 7 1020.6 - 0.0
21/10:00pm 14.5 11.4 8.8 68 2.9 S 15 17 8 9 1020.7 - 0.0
21/09:30pm 16.0 12.9 8.7 62 3.7 S 15 19 8 10 1020.8 - 0.0
21/09:00pm 16.4 12.3 8.5 59 4.0 S 20 26 11 14 1020.8 1020.8 0.0
21/08:30pm 16.8 12.8 8.3 57 4.3 S 19 22 10 12 1020.9 - 0.0
21/08:00pm 17.2 13.3 8.6 57 4.4 S 19 24 10 13 1020.6 - 0.0
21/07:30pm 17.6 13.1 8.7 56 4.6 S 22 28 12 15 1020.4 - 0.0
21/07:00pm 18.4 13.3 7.5 49 5.5 S 24 30 13 16 1019.9 - 0.0
21/06:30pm 19.0 14.8 7.3 46 5.9 SSW 19 26 10 14 1019.5 - 0.0
21/06:00pm 19.4 15.0 7.6 46 6.0 SSW 20 26 11 14 1018.9 1018.9 0.0
21/05:30pm 20.1 15.2 8.4 47 6.1 SW 24 32 13 17 1018.6 - 0.0
21/05:00pm 21.0 15.6 8.1 43 6.7 SW 26 33 14 18 1018.3 - 0.0
21/04:30pm 21.4 15.2 7.9 41 7.0 SW 30 35 16 19 1018.2 - 0.0
21/04:00pm 22.5 16.8 6.7 36 8.1 SW 26 32 14 17 1018.2 - 0.0
21/03:30pm 22.9 18.1 4.4 30 9.1 SW 19 32 10 17 1018.2 - 0.0
21/03:00pm 23.5 18.5 3.8 27 9.6 S 19 28 10 15 1018.1 1018.1 0.0
21/02:30pm 23.2 18.1 4.3 29 9.3 WSW 20 30 11 16 1018.1 - 0.0
21/02:00pm 22.8 18.0 4.8 31 8.9 S 19 32 10 17 1018.1 - 0.0
21/01:30pm 22.2 18.7 5.3 33 8.4 SW 13 28 7 15 1018.2 - 0.0
21/01:00pm 21.9 17.8 4.5 32 8.5 SSW 15 26 8 14 1018.4 - 0.0
21/12:30pm 21.5 17.1 4.8 33 8.2 S 17 26 9 14 1018.8 - 0.0
21/12:00pm 21.6 16.7 4.3 32 8.4 S 19 32 10 17 1019.0 1019.0 0.0
21/11:30am 21.2 16.6 5.4 35 7.8 SSW 19 26 10 14 1019.2 - 0.0
21/11:00am 20.5 16.9 4.9 36 7.6 SE 13 17 7 9 1019.7 - 0.0
21/10:30am 20.0 16.1 5.3 38 7.2 SSE 15 24 8 13 1019.7 - 0.0
21/10:00am 19.4 15.3 6.3 42 6.5 SE 17 24 9 13 1019.9 - 0.0
21/09:30am 18.7 14.8 6.9 46 5.9 SSE 17 24 9 13 1019.9 - 0.0
21/09:00am 18.1 14.4 8.1 52 5.1 SSE 17 20 9 11 1019.9 1019.9 0.0
21/08:30am 16.2 16.3 10.1 67 3.2 CALM 0 0 0 0 1019.7 - 0.0
21/08:00am 13.2 13.3 10.3 82 1.5 CALM 0 0 0 0 1019.6 - 0.0
21/07:30am 9.5 8.8 8.7 95 0.4 SE 2 9 1 5 1019.2 - 0.0
21/07:00am 7.7 5.7 7.3 97 0.2 SE 7 9 4 5 1019.0 - 0.0
21/06:30am 8.4 5.4 7.6 95 0.4 S 13 15 7 8 1018.9 - 0.0
21/06:00am 8.8 6.6 7.7 93 0.5 SSW 9 13 5 7 1018.5 1018.5 0.0
21/05:30am 11.4 10.0 9.6 89 0.9 S 7 9 4 5 1018.3 - 0.0
21/05:00am 11.8 10.1 9.8 87 1.0 SSE 9 11 5 6 1018.0 - 0.0
21/04:30am 10.8 7.8 9.4 91 0.7 SSW 15 19 8 10 1017.5 - 0.0
21/04:00am 11.5 9.4 9.7 89 0.9 S 11 13 6 7 1017.1 - 0.0
21/03:30am 13.0 11.0 10.1 82 1.5 S 11 13 6 7 1016.9 - 0.0
21/03:00am 13.1 10.7 10.2 82 1.5 SSW 13 15 7 8 1016.8 1016.8 0.0
21/02:30am 12.9 10.9 10.2 84 1.4 SSW 11 13 6 7 1016.7 - 0.0
21/02:00am 13.6 12.0 10.3 80 1.7 S 9 11 5 6 1016.4 - 0.0
21/01:30am 13.7 11.8 10.4 80 1.7 SSW 11 15 6 8 1016.4 - 0.0
21/01:00am 14.0 12.1 10.6 80 1.8 S 11 15 6 8 1016.2 - 0.0
21/12:30am 14.1 11.5 10.7 80 1.8 S 15 17 8 9 1015.9 - 0.0
21/12:00am 14.6 11.6 10.6 77 2.1 S 17 19 9 10 1015.8 1015.8 0.0
 
Date/Time
WST
Tmp

°C
App
Tmp
°C
Dew
Point
°C
Rel
Hum
%
Delta-T

°C
Wind Press
QNH
hPa
Press
MSL
hPa
Rain
since
9 am
mm
Dir
 
Spd
km/h
Gust
km/h
Spd
kts
Gust
kts
20/11:30pm 15.5 12.5 10.6 72 2.6 SSW 17 20 9 11 1015.8 - 0.0
20/11:00pm 14.3 11.8 10.9 80 1.8 SSW 15 20 8 11 1015.6 - 0.0
20/10:30pm 15.7 13.6 11.2 74 2.4 S 13 19 7 10 1015.4 - 0.0
20/10:00pm 16.4 14.4 11.6 73 2.6 S 13 15 7 8 1015.4 - 0.0
20/09:30pm 17.1 15.1 11.6 70 3.0 S 13 17 7 9 1015.2 - 0.0
20/09:00pm 17.4 14.8 11.9 70 3.0 S 17 22 9 12 1014.8 1014.8 0.0
20/08:30pm 18.0 14.9 11.6 66 3.5 S 19 26 10 14 1014.6 - 0.0
20/08:00pm 18.5 14.9 11.8 65 3.7 S 22 28 12 15 1014.3 - 0.0
20/07:30pm 19.1 14.9 11.2 60 4.3 S 24 30 13 16 1014.1 - 0.0
20/07:00pm 19.3 16.0 11.0 58 4.5 SSW 19 28 10 15 1013.8 - 0.0
20/06:30pm 19.7 16.3 11.1 57 4.7 SSW 20 32 11 17 1013.6 - 0.0

Latest Capital City Observations: Canberra | Sydney | Melbourne | Brisbane | Adelaide | Perth | Hobart | Darwin

Other Formats:

Comma delimited format used in spreadsheet applications
http://www.bom.gov.au/fwo/IDW60901/IDW60901.94610.axf

JavaScript Object Notation format (JSON) in row-major order
http://www.bom.gov.au/fwo/IDW60901/IDW60901.94610.json